Samantha, Alabama
Current Conditions -  °F | °C
As of 4:53 PM on Tuesday 21 Oct 2014 (Local Time) from KTCL Reporting Station
Broken Clouds Broken Clouds  
Wind Chill: 78°   Ceiling: 5500
Heat Index: 79°   Visibility: 10mi
Dew Point: 53°   Wind: 8mph
Humidity: 42%   Direction: 350°N
Pressure: 30"   Gusts: NA
Location:  33.42°N, 87.61°W
Report Text: KTCL 212153Z 35007KT 10SM BKN055 26/12 A3000 RMK AO2 SLP156 T02560117
Loading
Personal Weather Stations






























Interactive Weather Map
Tropical Storm Tracking
New forecast layout! Learn more

10-Day Weather Forecast

Advertisements
Track Severe Weather on mobile